Time;durP1;ratioP1;P1;durP2;ratioP2;P2;SDS_P1;SDS_P2;PMS_P1;PMS_P2;Temp;Humidity;BMP_temperature;BMP_pressure;BME280_temperature;BME280_humidity;BME280_pressure;Samples;Min_cycle;Max_cycle;Signal;HPM_P1;HPM_P2
2021/12/17 00:02:11;;;;;;;;;53.25;41.75;;;;;;;;5097876;27;45358;-82
2021/12/17 00:04:30;;;;;;;;;47.00;41.00;;;;;;;;5115867;27;45330;-82
2021/12/17 00:06:56;;;;;;;;;47.75;41.00;;;;;;;;5097446;27;46408;-83
2021/12/17 00:09:21;;;;;;;;;49.75;42.00;;;;;;;;5116316;27;45549;-82
2021/12/17 00:11:47;;;;;;;;;52.00;40.50;;;;;;;;5116512;27;45502;-82
2021/12/17 00:14:18;;;;;;;;;46.25;39.25;;;;;;;;5116475;27;45228;-84
2021/12/17 00:16:43;;;;;;;;;53.00;42.00;;;;;;;;5097636;27;47210;-82
2021/12/17 00:19:28;;;;;;;;;47.67;40.00;;;;;;;;5116214;27;45504;-82
2021/12/17 00:48:55;;;;;;;;;50.75;42.00;;;;;;;;5115707;27;45227;-83
2021/12/17 00:54:01;;;;;;;;;47.25;40.00;;;;;;;;5115121;27;45448;-82
2021/12/17 00:56:26;;;;;;;;;44.00;39.50;;;;;;;;5096820;27;45492;-82
2021/12/17 00:58:52;;;;;;;;;50.75;40.75;;;;;;;;5115687;27;45303;-82
2021/12/17 01:01:18;;;;;;;;;45.75;40.00;;;;;;;;5115509;27;45662;-83
2021/12/17 01:03:43;;;;;;;;;41.00;37.25;;;;;;;;5115460;27;45340;-82
2021/12/17 01:06:08;;;;;;;;;58.00;46.50;;;;;;;;5096895;27;45350;-82
2021/12/17 01:08:34;;;;;;;;;51.33;43.33;;;;;;;;5115059;27;45483;-82
2021/12/17 01:10:59;;;;;;;;;49.75;40.25;;;;;;;;5097097;27;45396;-83
2021/12/17 01:13:25;;;;;;;;;52.25;42.50;;;;;;;;5096927;27;45419;-82
2021/12/17 01:15:51;;;;;;;;;48.00;41.75;;;;;;;;5115478;27;45406;-82
2021/12/17 01:18:19;;;;;;;;;48.00;41.00;;;;;;;;5115453;27;45375;-82
2021/12/17 01:21:06;;;;;;;;;55.50;44.00;;;;;;;;5096484;27;45858;-83
2021/12/17 01:36:36;;;;;;;;;51.25;41.50;;;;;;;;5115229;27;45384;-82
2021/12/17 01:43:54;;;;;;;;;55.00;42.75;;;;;;;;5115289;27;45369;-82
2021/12/17 01:46:25;;;;;;;;;49.67;43.33;;;;;;;;5096350;27;45545;-82
2021/12/17 01:59:51;;;;;;;;;55.75;43.00;;;;;;;;5114642;27;46203;-82
2021/12/17 02:02:16;;;;;;;;;47.50;40.00;;;;;;;;5114941;27;45427;-83
2021/12/17 02:04:43;;;;;;;;;44.00;39.00;;;;;;;;5096223;27;45320;-83
2021/12/17 02:07:08;;;;;;;;;55.75;43.25;;;;;;;;5114090;27;45376;-82
2021/12/17 02:20:24;;;;;;;;;48.75;41.50;;;;;;;;5114318;27;45385;-83
2021/12/17 02:31:23;;;;;;;;;55.25;41.25;;;;;;;;5114126;27;45729;-82
2021/12/17 02:33:48;;;;;;;;;46.00;41.50;;;;;;;;5095741;27;45748;-84
2021/12/17 02:36:17;;;;;;;;;36.00;31.00;;;;;;;;5095539;27;45365;-82
2021/12/17 02:38:42;;;;;;;;;51.50;42.75;;;;;;;;5113836;27;45413;-82
2021/12/17 02:46:36;;;;;;;;;43.75;38.25;;;;;;;;5114169;27;45319;-82
2021/12/17 02:49:02;;;;;;;;;45.75;40.00;;;;;;;;5095566;27;45492;-83
2021/12/17 02:51:27;;;;;;;;;48.00;40.75;;;;;;;;5113712;27;45747;-82
2021/12/17 02:53:53;;;;;;;;;45.33;39.67;;;;;;;;5113853;27;45294;-82
2021/12/17 02:56:18;;;;;;;;;49.75;40.50;;;;;;;;5114307;27;45524;-83
2021/12/17 02:58:45;;;;;;;;;45.67;40.00;;;;;;;;5113951;27;45592;-82
2021/12/17 03:01:12;;;;;;;;;44.50;40.00;;;;;;;;5095224;27;47147;-83
2021/12/17 03:03:38;;;;;;;;;48.00;40.75;;;;;;;;5095194;27;45634;-82
2021/12/17 03:06:04;;;;;;;;;48.50;38.00;;;;;;;;5095393;27;45372;-82
2021/12/17 03:08:29;;;;;;;;;51.75;42.50;;;;;;;;5113623;27;45547;-84
2021/12/17 03:10:55;;;;;;;;;46.75;39.50;;;;;;;;5113646;27;45419;-82
2021/12/17 03:13:22;;;;;;;;;51.75;42.25;;;;;;;;5095199;27;45298;-82
2021/12/17 03:23:44;;;;;;;;;43.25;37.00;;;;;;;;5116942;27;46071;-82
2021/12/17 03:26:20;;;;;;;;;41.50;36.00;;;;;;;;5117329;27;45346;-82
2021/12/17 03:28:46;;;;;;;;;44.25;37.25;;;;;;;;5117354;27;45523;-83
2021/12/17 03:31:12;;;;;;;;;48.25;38.50;;;;;;;;5116985;27;46113;-82
2021/12/17 03:33:41;;;;;;;;;43.00;37.50;;;;;;;;5098790;27;45621;-82
2021/12/17 03:36:06;;;;;;;;;44.50;38.50;;;;;;;;5117317;27;45622;-83
2021/12/17 03:38:32;;;;;;;;;40.50;37.00;;;;;;;;5098155;27;45588;-82
2021/12/17 03:41:36;;;;;;;;;46.67;39.00;;;;;;;;5098238;27;47099;-83
2021/12/17 03:43:49;;;;;;;;;42.50;38.25;;;;;;;;5113390;27;45842;-82
2021/12/17 03:46:15;;;;;;;;;38.00;36.25;;;;;;;;5116663;27;45343;-82
2021/12/17 03:48:41;;;;;;;;;47.50;38.50;;;;;;;;5098400;27;45572;-83
2021/12/17 03:51:14;;;;;;;;;44.75;38.50;;;;;;;;5098245;27;47369;-82
2021/12/17 03:53:41;;;;;;;;;39.25;34.50;;;;;;;;5097661;27;45422;-82
2021/12/17 03:56:06;;;;;;;;;39.25;36.75;;;;;;;;5116558;27;45472;-82
2021/12/17 03:58:32;;;;;;;;;39.33;35.33;;;;;;;;5098333;27;45574;-83
2021/12/17 04:00:57;;;;;;;;;42.67;37.00;;;;;;;;5097848;27;47046;-83
2021/12/17 04:03:22;;;;;;;;;49.33;41.00;;;;;;;;5098161;27;45508;-82
2021/12/17 04:05:47;;;;;;;;;44.33;39.67;;;;;;;;5098024;27;45298;-82
2021/12/17 04:08:13;;;;;;;;;48.00;40.00;;;;;;;;5116586;27;45271;-84
2021/12/17 04:10:43;;;;;;;;;35.00;30.25;;;;;;;;5097837;27;46013;-83
2021/12/17 04:16:09;;;;;;;;;40.00;35.75;;;;;;;;5116638;27;45459;-84
2021/12/17 04:18:35;;;;;;;;;38.75;35.75;;;;;;;;5098092;27;45533;-82
2021/12/17 04:21:03;;;;;;;;;48.00;38.25;;;;;;;;5115919;27;45462;-82
2021/12/17 04:23:31;;;;;;;;;46.75;39.50;;;;;;;;5116401;27;45518;-82
2021/12/17 04:25:57;;;;;;;;;50.75;41.50;;;;;;;;5116434;27;45312;-82
2021/12/17 04:28:22;;;;;;;;;41.50;37.75;;;;;;;;5097707;27;45491;-82
2021/12/17 04:30:48;;;;;;;;;47.75;38.25;;;;;;;;5116365;27;45690;-82
2021/12/17 04:33:13;;;;;;;;;37.75;36.25;;;;;;;;5116224;27;45422;-83
2021/12/17 04:35:40;;;;;;;;;36.50;35.25;;;;;;;;5116162;27;45532;-81
2021/12/17 04:38:07;;;;;;;;;42.75;36.25;;;;;;;;5097383;27;45375;-84
2021/12/17 04:40:32;;;;;;;;;45.00;40.00;;;;;;;;5097390;27;46745;-83
2021/12/17 04:43:13;;;;;;;;;40.50;37.00;;;;;;;;5097362;27;45538;-82
2021/12/17 04:46:14;;;;;;;;;36.25;32.00;;;;;;;;5116093;27;45303;-82
2021/12/17 04:59:19;;;;;;;;;34.00;29.50;;;;;;;;5115936;27;45469;-82
2021/12/17 05:01:44;;;;;;;;;37.33;33.67;;;;;;;;5115414;27;46112;-82
2021/12/17 05:04:10;;;;;;;;;39.67;35.00;;;;;;;;5097110;27;45398;-82
2021/12/17 05:06:35;;;;;;;;;38.00;32.50;;;;;;;;5115289;27;45479;-82
2021/12/17 05:09:09;;;;;;;;;33.67;33.00;;;;;;;;5116072;27;45665;-83
2021/12/17 05:19:54;;;;;;;;;34.75;31.25;;;;;;;;5110277;27;45505;-82
2021/12/17 05:22:20;;;;;;;;;35.50;31.75;;;;;;;;5114977;27;45655;-82
2021/12/17 05:24:46;;;;;;;;;37.75;36.00;;;;;;;;5115356;27;45456;-83
2021/12/17 05:27:11;;;;;;;;;31.50;23.50;;;;;;;;5097126;27;45645;-83
2021/12/17 05:29:36;;;;;;;;;34.75;32.25;;;;;;;;5115234;27;45528;-82
2021/12/17 05:32:02;;;;;;;;;36.00;30.33;;;;;;;;5096542;27;47320;-82
2021/12/17 05:34:27;;;;;;;;;35.00;32.25;;;;;;;;5115082;27;45398;-82
2021/12/17 05:36:52;;;;;;;;;32.33;30.33;;;;;;;;5096406;27;45356;-82
2021/12/17 05:39:17;;;;;;;;;31.67;30.00;;;;;;;;5115369;27;45409;-83
2021/12/17 05:41:43;;;;;;;;;36.33;30.67;;;;;;;;5095526;27;47368;-83
2021/12/17 05:44:08;;;;;;;;;35.33;32.67;;;;;;;;5096569;27;45548;-82
2021/12/17 05:46:49;;;;;;;;;37.00;34.75;;;;;;;;5115087;27;45365;-82
2021/12/17 05:49:15;;;;;;;;;30.25;26.00;;;;;;;;5096434;27;45435;-82
2021/12/17 05:51:40;;;;;;;;;33.00;31.50;;;;;;;;5095514;27;48951;-82
2021/12/17 05:54:06;;;;;;;;;29.00;26.67;;;;;;;;5096365;27;45527;-82
2021/12/17 05:56:31;;;;;;;;;34.67;31.00;;;;;;;;5115063;27;45454;-82
2021/12/17 05:58:56;;;;;;;;;35.67;34.33;;;;;;;;5096434;27;45500;-82
2021/12/17 06:01:22;;;;;;;;;24.50;23.00;;;;;;;;5114757;27;45456;-83
2021/12/17 06:03:47;;;;;;;;;31.75;28.00;;;;;;;;5114828;27;45381;-83
2021/12/17 06:06:24;;;;;;;;;36.33;31.67;;;;;;;;5096229;27;45401;-83
2021/12/17 06:08:49;;;;;;;;;32.25;30.25;;;;;;;;5096313;27;45371;-82
2021/12/17 06:11:14;;;;;;;;;33.67;29.00;;;;;;;;5095889;27;46075;-82
2021/12/17 06:13:39;;;;;;;;;34.00;32.33;;;;;;;;5114284;27;45504;-84
2021/12/17 06:16:04;;;;;;;;;32.33;27.00;;;;;;;;5114930;27;45673;-82
2021/12/17 06:18:30;;;;;;;;;35.00;31.33;;;;;;;;5096096;27;45481;-83
2021/12/17 06:20:55;;;;;;;;;30.33;27.00;;;;;;;;5095847;27;47342;-82
2021/12/17 06:23:20;;;;;;;;;34.00;29.33;;;;;;;;5114177;27;45548;-82
2021/12/17 06:25:45;;;;;;;;;35.33;32.00;;;;;;;;5114627;27;45448;-83
2021/12/17 06:28:10;;;;;;;;;28.67;27.67;;;;;;;;5095885;27;45495;-82
2021/12/17 06:30:35;;;;;;;;;29.67;26.33;;;;;;;;5114469;27;45426;-83
2021/12/17 06:33:01;;;;;;;;;27.67;24.00;;;;;;;;5095898;27;45594;-82
2021/12/17 06:35:26;;;;;;;;;34.33;29.00;;;;;;;;5114554;27;45362;-82
2021/12/17 06:37:51;;;;;;;;;37.33;31.67;;;;;;;;5113811;27;45318;-83
2021/12/17 06:40:16;;;;;;;;;31.67;27.33;;;;;;;;5095634;27;48138;-82
2021/12/17 06:42:44;;;;;;;;;30.67;29.00;;;;;;;;5114254;27;45440;-81
2021/12/17 06:45:18;;;;;;;;;34.75;28.50;;;;;;;;5114586;27;45410;-82
2021/12/17 06:47:52;;;;;;;;;29.75;28.00;;;;;;;;5095540;27;45440;-82
2021/12/17 06:57:01;;;;;;;;;39.25;32.25;;;;;;;;5117855;27;45237;-82
2021/12/17 06:58:47;;;;;;;;;38.50;34.00;;;;;;;;5106109;27;45515;-82
2021/12/17 07:05:50;;;;;;;;;29.50;27.25;;;;;;;;5117711;27;45432;-82
2021/12/17 07:07:13;;;;;;;;;34.50;33.25;;;;;;;;5117408;27;45321;-81
2021/12/17 07:17:53;;;;;;;;;31.25;28.00;;;;;;;;5117714;27;45365;-82
2021/12/17 07:24:46;;;;;;;;;32.00;28.00;;;;;;;;5072853;28;45600;-82
2021/12/17 07:29:32;;;;;;;;;36.00;30.50;;;;;;;;5117283;27;45436;-82
2021/12/17 07:34:20;;;;;;;;;24.75;22.75;;;;;;;;5117016;27;45874;-82
2021/12/17 07:39:17;;;;;;;;;37.75;32.75;;;;;;;;5117149;27;45265;-83
2021/12/17 07:41:43;;;;;;;;;31.33;28.00;;;;;;;;5116839;27;45647;-82
2021/12/17 07:44:09;;;;;;;;;31.00;28.25;;;;;;;;5098296;27;48244;-82
2021/12/17 07:46:34;;;;;;;;;31.50;29.25;;;;;;;;5098348;27;45781;-82
2021/12/17 07:48:59;;;;;;;;;31.33;26.67;;;;;;;;5098619;27;45703;-82
2021/12/17 07:51:25;;;;;;;;;32.00;30.67;;;;;;;;5116134;27;45533;-82
2021/12/17 07:53:50;;;;;;;;;28.67;27.33;;;;;;;;5115650;27;46604;-82
2021/12/17 07:56:18;;;;;;;;;33.50;30.50;;;;;;;;5097040;27;45726;-82
2021/12/17 07:58:43;;;;;;;;;24.25;23.50;;;;;;;;5115808;27;45378;-83
2021/12/17 08:01:10;;;;;;;;;28.00;23.25;;;;;;;;5097395;27;45686;-83
2021/12/17 08:03:36;;;;;;;;;28.50;25.25;;;;;;;;5115083;27;45553;-82
2021/12/17 08:06:01;;;;;;;;;25.75;25.00;;;;;;;;5096595;27;45746;-82
2021/12/17 08:08:26;;;;;;;;;31.50;27.75;;;;;;;;5115196;27;45506;-83
2021/12/17 08:10:52;;;;;;;;;28.25;26.25;;;;;;;;5096887;27;45543;-82
2021/12/17 08:13:27;;;;;;;;;33.67;29.33;;;;;;;;5097050;27;46953;-82
2021/12/17 08:24:28;;;;;;;;;31.00;26.00;;;;;;;;5115127;27;45480;-82
2021/12/17 08:31:28;;;;;;;;;27.75;26.75;;;;;;;;5115118;27;45383;-82
2021/12/17 08:33:54;;;;;;;;;29.50;27.25;;;;;;;;5115488;27;46694;-83
2021/12/17 08:36:19;;;;;;;;;29.00;28.00;;;;;;;;5096111;27;45538;-82
2021/12/17 08:38:45;;;;;;;;;35.50;28.75;;;;;;;;5114977;27;45278;-82
2021/12/17 08:41:11;;;;;;;;;28.50;26.00;;;;;;;;5096195;27;45364;-82
2021/12/17 08:43:36;;;;;;;;;26.50;25.00;;;;;;;;5096008;27;47204;-83
2021/12/17 08:46:02;;;;;;;;;34.33;28.33;;;;;;;;5114822;27;45350;-82
2021/12/17 08:48:27;;;;;;;;;30.25;28.75;;;;;;;;5095962;27;45438;-82
2021/12/17 08:50:52;;;;;;;;;32.00;29.00;;;;;;;;5096027;27;45503;-82
2021/12/17 08:53:18;;;;;;;;;26.00;24.00;;;;;;;;5054718;27;1173983;-82
2021/12/17 08:55:43;;;;;;;;;29.00;28.00;;;;;;;;5097227;27;45413;-84
2021/12/17 08:58:13;;;;;;;;;34.75;32.00;;;;;;;;5115862;27;45358;-82
2021/12/17 09:00:38;;;;;;;;;32.50;26.75;;;;;;;;5097234;27;45279;-82
2021/12/17 09:03:04;;;;;;;;;30.00;28.67;;;;;;;;5115386;27;46538;-82
2021/12/17 09:05:29;;;;;;;;;31.00;28.00;;;;;;;;5115819;27;45472;-83
2021/12/17 09:07:54;;;;;;;;;35.33;30.00;;;;;;;;5115230;27;45521;-82
2021/12/17 09:10:22;;;;;;;;;27.67;23.33;;;;;;;;5096986;27;45550;-82
2021/12/17 09:12:48;;;;;;;;;29.25;27.25;;;;;;;;5096725;27;47570;-84
2021/12/17 09:15:13;;;;;;;;;29.00;26.25;;;;;;;;5115016;27;45652;-83
2021/12/17 09:17:39;;;;;;;;;34.33;28.67;;;;;;;;5115878;27;45515;-83
2021/12/17 09:20:06;;;;;;;;;35.33;31.67;;;;;;;;5096925;27;45327;-83
2021/12/17 09:22:31;;;;;;;;;29.25;27.25;;;;;;;;5115041;27;46327;-83
2021/12/17 09:24:56;;;;;;;;;37.33;34.00;;;;;;;;5115217;27;45346;-83
2021/12/17 09:27:21;;;;;;;;;36.33;32.33;;;;;;;;5115712;27;45474;-82
2021/12/17 09:29:47;;;;;;;;;33.67;28.67;;;;;;;;5115344;27;45349;-83
2021/12/17 09:32:12;;;;;;;;;41.00;34.33;;;;;;;;5115110;27;46196;-84
2021/12/17 09:34:37;;;;;;;;;34.67;31.00;;;;;;;;5097173;27;45432;-87
2021/12/17 09:37:02;;;;;;;;;33.50;30.75;;;;;;;;5115350;27;45387;-87
2021/12/17 09:39:28;;;;;;;;;35.25;32.25;;;;;;;;5096830;27;45389;-84
2021/12/17 09:41:53;;;;;;;;;35.33;32.33;;;;;;;;5096941;27;47003;-86
2021/12/17 09:44:19;;;;;;;;;37.00;33.00;;;;;;;;5096857;27;45320;-86
2021/12/17 09:46:45;;;;;;;;;38.25;33.25;;;;;;;;5096816;27;45496;-86
2021/12/17 09:49:10;;;;;;;;;35.00;30.75;;;;;;;;5115665;27;45405;-87
2021/12/17 09:51:36;;;;;;;;;36.50;33.50;;;;;;;;5114433;27;45494;-85
2021/12/17 09:54:01;;;;;;;;;34.25;30.75;;;;;;;;5115037;27;45429;-85
2021/12/17 09:56:27;;;;;;;;;36.67;32.33;;;;;;;;5115081;27;45342;-87
2021/12/17 09:58:53;;;;;;;;;37.75;34.00;;;;;;;;5114893;27;45548;-86
2021/12/17 10:01:18;;;;;;;;;38.00;35.75;;;;;;;;5096545;27;46887;-85
2021/12/17 10:03:43;;;;;;;;;36.00;32.00;;;;;;;;5114731;27;45448;-85
2021/12/17 10:06:21;;;;;;;;;37.67;32.67;;;;;;;;5096148;27;45489;-86
2021/12/17 10:08:47;;;;;;;;;50.50;39.50;;;;;;;;5096504;27;45427;-86
2021/12/17 10:11:13;;;;;;;;;42.50;35.50;;;;;;;;5096301;27;47924;-87
2021/12/17 10:13:39;;;;;;;;;41.75;36.75;;;;;;;;5114858;27;45854;-86
2021/12/17 10:16:06;;;;;;;;;43.67;37.00;;;;;;;;5096375;27;45530;-85
2021/12/17 10:18:37;;;;;;;;;40.25;34.50;;;;;;;;5096529;27;45339;-85
2021/12/17 10:21:04;;;;;;;;;38.75;34.50;;;;;;;;5095487;27;48265;-83
2021/12/17 10:23:30;;;;;;;;;42.00;34.25;;;;;;;;5096033;27;45883;-83
2021/12/17 10:25:56;;;;;;;;;46.00;36.25;;;;;;;;5096066;27;45359;-82
2021/12/17 10:28:21;;;;;;;;;37.50;33.00;;;;;;;;5095719;27;45626;-82
2021/12/17 10:30:48;;;;;;;;;33.50;30.25;;;;;;;;5114279;27;46224;-83
2021/12/17 10:33:18;;;;;;;;;36.25;33.75;;;;;;;;5095888;27;45310;-83
2021/12/17 10:35:46;;;;;;;;;37.00;32.00;;;;;;;;5095737;27;45316;-80
2021/12/17 10:38:15;;;;;;;;;36.75;33.50;;;;;;;;5095870;27;45512;-83
2021/12/17 10:40:46;;;;;;;;;32.00;30.50;;;;;;;;5114208;27;45370;-84
2021/12/17 10:43:25;;;;;;;;;34.25;29.75;;;;;;;;5114293;27;45240;-83
2021/12/17 10:46:05;;;;;;;;;37.00;33.00;;;;;;;;5114521;27;45581;-85
2021/12/17 10:48:35;;;;;;;;;34.50;32.00;;;;;;;;5114420;27;45330;-82
2021/12/17 10:51:44;;;;;;;;;37.25;34.50;;;;;;;;5095061;27;46370;-82
2021/12/17 10:54:02;;;;;;;;;38.50;32.75;;;;;;;;5112376;27;45557;-82
2021/12/17 10:56:29;;;;;;;;;41.75;37.25;;;;;;;;5095538;27;45259;-82
2021/12/17 10:58:56;;;;;;;;;52.50;41.25;;;;;;;;5114075;27;45426;-82
2021/12/17 11:01:28;;;;;;;;;41.25;36.75;;;;;;;;5095219;27;47068;-83
2021/12/17 11:04:02;;;;;;;;;44.25;37.50;;;;;;;;5095432;27;45747;-82
2021/12/17 11:06:39;;;;;;;;;32.25;25.00;;;;;;;;5095166;27;45406;-85
2021/12/17 11:09:04;;;;;;;;;44.50;38.75;;;;;;;;5113772;27;45964;-83
2021/12/17 11:11:33;;;;;;;;;42.33;35.33;;;;;;;;5095560;27;48261;-83
2021/12/17 11:14:00;;;;;;;;;40.75;35.25;;;;;;;;5095112;27;45400;-83
2021/12/17 11:16:28;;;;;;;;;38.00;34.50;;;;;;;;5095306;27;45509;-83
2021/12/17 11:18:55;;;;;;;;;36.50;33.50;;;;;;;;5114050;27;45531;-85
2021/12/17 11:21:20;;;;;;;;;32.00;28.75;;;;;;;;5094401;27;47523;-84
2021/12/17 11:23:45;;;;;;;;;31.00;27.67;;;;;;;;5095210;27;45401;-82
2021/12/17 11:26:10;;;;;;;;;26.75;25.00;;;;;;;;5095249;27;45309;-83
2021/12/17 11:28:36;;;;;;;;;28.00;25.75;;;;;;;;5114032;27;45884;-83
2021/12/17 11:31:01;;;;;;;;;27.50;24.00;;;;;;;;5095459;27;48140;-86
2021/12/17 11:33:27;;;;;;;;;32.00;29.50;;;;;;;;5113408;27;45475;-82
2021/12/17 11:35:55;;;;;;;;;27.50;24.50;;;;;;;;5095174;27;45424;-84
2021/12/17 11:38:35;;;;;;;;;32.50;29.25;;;;;;;;5095078;27;45398;-83
2021/12/17 11:41:07;;;;;;;;;35.50;31.75;;;;;;;;5098209;27;46486;-83
2021/12/17 11:43:52;;;;;;;;;32.75;28.25;;;;;;;;5117363;27;45539;-83
2021/12/17 11:46:21;;;;;;;;;34.00;31.00;;;;;;;;5117039;27;45275;-82
2021/12/17 11:48:51;;;;;;;;;32.00;28.50;;;;;;;;5117033;27;45414;-85
2021/12/17 11:51:17;;;;;;;;;30.75;29.50;;;;;;;;5097850;27;47847;-83
2021/12/17 11:53:52;;;;;;;;;30.50;28.75;;;;;;;;5116903;27;45846;-83
2021/12/17 11:56:30;;;;;;;;;38.00;34.50;;;;;;;;5098774;27;45318;-87
2021/12/17 11:58:55;;;;;;;;;32.75;29.75;;;;;;;;5116957;27;46065;-86
2021/12/17 12:01:39;;;;;;;;;36.33;33.33;;;;;;;;5098420;27;47341;-87
2021/12/17 12:04:22;;;;;;;;;37.25;31.25;;;;;;;;5116943;27;45265;-86
2021/12/17 12:07:06;;;;;;;;;27.75;26.00;;;;;;;;5116591;27;45689;-86
2021/12/17 12:09:59;;;;;;;;;30.25;26.50;;;;;;;;5116947;27;45468;-86
2021/12/17 12:12:26;;;;;;;;;24.50;24.00;;;;;;;;5116665;27;45400;-86
2021/12/17 12:14:52;;;;;;;;;28.75;24.00;;;;;;;;5116838;27;45382;-85
2021/12/17 12:17:36;;;;;;;;;23.75;20.25;;;;;;;;5098234;27;45475;-86
2021/12/17 12:20:01;;;;;;;;;20.25;19.75;;;;;;;;5116554;27;45624;-87
2021/12/17 12:22:33;;;;;;;;;25.33;22.67;;;;;;;;5116457;27;45409;-87
2021/12/17 12:25:17;;;;;;;;;30.75;24.75;;;;;;;;5098314;27;45647;-85
2021/12/17 12:27:45;;;;;;;;;26.50;25.50;;;;;;;;5098398;27;45411;-86
2021/12/17 12:30:10;;;;;;;;;25.00;24.00;;;;;;;;5097799;27;45500;-86
2021/12/17 12:32:55;;;;;;;;;24.33;22.33;;;;;;;;5116341;27;45411;-83
2021/12/17 12:35:21;;;;;;;;;25.00;22.50;;;;;;;;5097694;27;46065;-83
2021/12/17 12:38:06;;;;;;;;;26.75;26.25;;;;;;;;5097495;27;45333;-83
2021/12/17 12:40:34;;;;;;;;;20.25;20.25;;;;;;;;5115743;27;45324;-82
2021/12/17 12:42:59;;;;;;;;;26.00;25.00;;;;;;;;5115935;27;45434;-83
2021/12/17 12:45:28;;;;;;;;;26.00;24.33;;;;;;;;5097410;27;45958;-82
2021/12/17 12:47:55;;;;;;;;;23.25;20.25;;;;;;;;5115793;27;45428;-83
2021/12/17 12:50:24;;;;;;;;;24.00;22.75;;;;;;;;5096222;27;45602;-84
2021/12/17 12:53:05;;;;;;;;;27.00;26.00;;;;;;;;5096466;27;47993;-82
2021/12/17 12:55:44;;;;;;;;;27.00;24.75;;;;;;;;5097544;27;45498;-82
2021/12/17 12:58:14;;;;;;;;;28.00;26.25;;;;;;;;5097301;27;45467;-82
2021/12/17 13:00:40;;;;;;;;;30.25;26.75;;;;;;;;5096790;27;45566;-82
2021/12/17 13:03:13;;;;;;;;;35.00;27.00;;;;;;;;5097022;27;46243;-83
2021/12/17 13:05:40;;;;;;;;;25.25;22.25;;;;;;;;5115506;27;45957;-82
2021/12/17 13:08:07;;;;;;;;;26.00;24.50;;;;;;;;5096994;27;45460;-83
2021/12/17 13:10:32;;;;;;;;;29.00;25.50;;;;;;;;5097044;27;45382;-82
2021/12/17 13:13:04;;;;;;;;;22.67;22.33;;;;;;;;5097237;27;48335;-83
2021/12/17 13:23:34;;;;;;;;;32.50;29.75;;;;;;;;5115451;27;45769;-82
2021/12/17 13:26:07;;;;;;;;;29.25;26.50;;;;;;;;5115922;27;45521;-83
2021/12/17 13:28:49;;;;;;;;;34.00;28.25;;;;;;;;5097041;27;45527;-85
2021/12/17 13:31:33;;;;;;;;;31.75;29.50;;;;;;;;5092082;27;45365;-83
2021/12/17 13:33:58;;;;;;;;;28.50;26.50;;;;;;;;5115102;27;45365;-82
2021/12/17 13:36:24;;;;;;;;;33.67;29.00;;;;;;;;5114918;27;45426;-83
2021/12/17 13:38:56;;;;;;;;;31.33;29.00;;;;;;;;5096553;27;45424;-83
2021/12/17 13:41:32;;;;;;;;;29.25;25.75;;;;;;;;5115105;27;45377;-83
2021/12/17 13:43:57;;;;;;;;;25.75;23.50;;;;;;;;5115343;27;45547;-83
2021/12/17 13:46:26;;;;;;;;;27.67;25.33;;;;;;;;5096361;27;45409;-85
2021/12/17 13:48:51;;;;;;;;;28.50;26.00;;;;;;;;5115242;27;45430;-83
2021/12/17 13:51:16;;;;;;;;;25.33;23.00;;;;;;;;5095739;27;45646;-83
2021/12/17 13:53:42;;;;;;;;;29.50;27.00;;;;;;;;5096264;27;47128;-84
2021/12/17 13:56:13;;;;;;;;;23.00;19.67;;;;;;;;5115370;27;45486;-85
2021/12/17 13:58:39;;;;;;;;;31.50;28.50;;;;;;;;5096519;27;45494;-86
2021/12/17 14:01:05;;;;;;;;;26.25;25.00;;;;;;;;5114661;27;45562;-83
2021/12/17 14:03:35;;;;;;;;;27.75;27.00;;;;;;;;5114251;27;46067;-85
2021/12/17 14:06:17;;;;;;;;;28.00;26.50;;;;;;;;5095924;27;45376;-82
2021/12/17 14:08:42;;;;;;;;;25.00;24.00;;;;;;;;5114960;27;45422;-85
2021/12/17 14:11:18;;;;;;;;;26.67;24.67;;;;;;;;5096258;27;45356;-86
2021/12/17 14:13:43;;;;;;;;;26.50;23.75;;;;;;;;5095850;27;47392;-84
2021/12/17 14:16:08;;;;;;;;;20.33;19.33;;;;;;;;5115128;27;45580;-83
2021/12/17 14:18:34;;;;;;;;;21.00;20.33;;;;;;;;5096742;27;45443;-86
2021/12/17 14:21:03;;;;;;;;;25.00;21.25;;;;;;;;5114432;27;45614;-86
2021/12/17 14:23:30;;;;;;;;;22.25;20.75;;;;;;;;5096118;27;46471;-87
2021/12/17 14:26:05;;;;;;;;;22.50;20.25;;;;;;;;5096229;27;45675;-87
2021/12/17 14:28:31;;;;;;;;;25.25;23.00;;;;;;;;5114829;27;45563;-86
2021/12/17 14:31:04;;;;;;;;;28.50;24.50;;;;;;;;5096040;27;45417;-86
2021/12/17 14:33:34;;;;;;;;;24.25;20.00;;;;;;;;5114844;27;45459;-87
2021/12/17 14:36:01;;;;;;;;;29.00;27.25;;;;;;;;5114132;27;45264;-85
2021/12/17 14:38:41;;;;;;;;;22.75;20.50;;;;;;;;5115001;27;45690;-85
2021/12/17 14:41:10;;;;;;;;;25.50;22.50;;;;;;;;5114241;27;45476;-85
2021/12/17 14:43:40;;;;;;;;;31.50;28.25;;;;;;;;5095251;27;48008;-83
2021/12/17 14:48:46;;;;;;;;;25.50;23.50;;;;;;;;5114303;27;45555;-83
2021/12/17 15:02:12;;;;;;;;;26.00;24.50;;;;;;;;5108978;27;45451;-86
2021/12/17 15:04:37;;;;;;;;;32.25;30.50;;;;;;;;5113862;27;46348;-82
2021/12/17 15:07:02;;;;;;;;;17.67;15.33;;;;;;;;5095184;27;45496;-83
2021/12/17 15:09:30;;;;;;;;;27.50;26.00;;;;;;;;5095609;27;45419;-83
2021/12/17 15:11:59;;;;;;;;;24.25;23.50;;;;;;;;5113848;27;45373;-86
2021/12/17 15:14:24;;;;;;;;;22.00;21.25;;;;;;;;5115211;27;45572;-84
2021/12/17 15:16:50;;;;;;;;;20.33;19.00;;;;;;;;5117543;27;45377;-83
2021/12/17 15:19:15;;;;;;;;;28.50;25.00;;;;;;;;5098977;27;45399;-83
2021/12/17 15:21:40;;;;;;;;;22.75;20.75;;;;;;;;5116952;27;45279;-82
2021/12/17 15:24:06;;;;;;;;;27.33;23.67;;;;;;;;5098714;27;47514;-85
2021/12/17 15:26:31;;;;;;;;;23.67;22.00;;;;;;;;5098752;27;45292;-83
2021/12/17 15:28:56;;;;;;;;;22.33;20.33;;;;;;;;5098846;27;45327;-82
2021/12/17 15:31:21;;;;;;;;;19.00;17.67;;;;;;;;5098805;27;45316;-83
2021/12/17 15:33:46;;;;;;;;;18.00;16.00;;;;;;;;5098662;27;47107;-86
2021/12/17 15:36:12;;;;;;;;;18.00;16.33;;;;;;;;5098104;27;45346;-85
2021/12/17 15:38:37;;;;;;;;;20.00;18.00;;;;;;;;5098704;27;45508;-83
2021/12/17 15:41:02;;;;;;;;;18.50;15.75;;;;;;;;5117251;27;45480;-85
2021/12/17 15:43:28;;;;;;;;;24.25;21.50;;;;;;;;5116911;27;45283;-83
2021/12/17 15:45:53;;;;;;;;;22.75;20.75;;;;;;;;5116828;27;45539;-83
2021/12/17 15:48:19;;;;;;;;;18.50;18.00;;;;;;;;5098551;27;45388;-84
2021/12/17 15:50:45;;;;;;;;;21.00;20.75;;;;;;;;5116763;27;45449;-83
2021/12/17 15:53:10;;;;;;;;;20.67;19.67;;;;;;;;5116358;27;45469;-82
2021/12/17 15:55:36;;;;;;;;;17.00;16.50;;;;;;;;5098015;27;45314;-83
2021/12/17 15:58:02;;;;;;;;;26.50;26.00;;;;;;;;5116645;27;45403;-83
2021/12/17 16:00:31;;;;;;;;;23.25;21.25;;;;;;;;5098331;27;45591;-85
2021/12/17 16:02:56;;;;;;;;;24.50;22.00;;;;;;;;5116671;27;45530;-83
2021/12/17 16:05:23;;;;;;;;;22.50;20.50;;;;;;;;5116557;27;45378;-86
2021/12/17 16:07:51;;;;;;;;;24.50;23.00;;;;;;;;5097928;27;45333;-83
2021/12/17 16:23:19;;;;;;;;;24.75;21.50;;;;;;;;5116329;27;45785;-83
2021/12/17 16:25:44;;;;;;;;;22.00;20.33;;;;;;;;5097700;27;45515;-83
2021/12/17 16:28:09;;;;;;;;;21.33;21.00;;;;;;;;5116375;27;45464;-84
2021/12/17 16:30:34;;;;;;;;;24.33;21.67;;;;;;;;5116778;27;45826;-84
2021/12/17 16:33:00;;;;;;;;;24.00;23.00;;;;;;;;5116397;27;46439;-83
2021/12/17 16:35:25;;;;;;;;;24.00;22.00;;;;;;;;5097735;27;45522;-82
2021/12/17 16:37:50;;;;;;;;;28.67;22.00;;;;;;;;5116051;27;45518;-83
2021/12/17 16:40:16;;;;;;;;;24.33;21.67;;;;;;;;5116489;27;45504;-86
2021/12/17 16:42:42;;;;;;;;;23.25;22.00;;;;;;;;5097941;27;46976;-85
2021/12/17 16:47:39;;;;;;;;;23.50;22.50;;;;;;;;5116367;27;45739;-87
2021/12/17 16:50:05;;;;;;;;;20.33;19.00;;;;;;;;5116402;27;45322;-84
2021/12/17 16:52:30;;;;;;;;;22.25;20.25;;;;;;;;5096916;27;48861;-84
2021/12/17 16:54:56;;;;;;;;;25.00;24.00;;;;;;;;5097376;27;45310;-83
2021/12/17 16:57:22;;;;;;;;;23.75;22.50;;;;;;;;5097761;27;45463;-84
2021/12/17 16:59:47;;;;;;;;;22.75;21.00;;;;;;;;5115989;27;45593;-82
2021/12/17 17:02:12;;;;;;;;;23.33;20.33;;;;;;;;5097084;27;48487;-84
2021/12/17 17:04:37;;;;;;;;;24.67;22.33;;;;;;;;5097058;27;45499;-83
2021/12/17 17:07:03;;;;;;;;;22.67;21.33;;;;;;;;5115406;27;45373;-83
2021/12/17 17:09:29;;;;;;;;;23.00;21.50;;;;;;;;5097269;27;45564;-85
2021/12/17 17:12:02;;;;;;;;;24.00;19.25;;;;;;;;5115630;27;45459;-83
2021/12/17 17:14:27;;;;;;;;;22.25;19.75;;;;;;;;5115709;27;45354;-83
2021/12/17 17:16:52;;;;;;;;;22.25;20.25;;;;;;;;5115787;27;45393;-82
2021/12/17 17:19:17;;;;;;;;;21.00;19.33;;;;;;;;5115177;27;45359;-83
2021/12/17 17:21:43;;;;;;;;;22.67;21.33;;;;;;;;5096704;27;46893;-83
2021/12/17 17:24:10;;;;;;;;;24.33;21.00;;;;;;;;5096936;27;45598;-83
2021/12/17 17:26:35;;;;;;;;;21.50;20.75;;;;;;;;5115902;27;45513;-82
2021/12/17 17:29:03;;;;;;;;;24.00;19.75;;;;;;;;5096868;27;45428;-83
2021/12/17 17:31:29;;;;;;;;;23.25;23.00;;;;;;;;5096661;27;47229;-84
2021/12/17 17:33:55;;;;;;;;;21.50;21.25;;;;;;;;5115162;27;45768;-83